sensor_id;sensor_type;location;lat;lon;timestamp;P1;durP1;ratioP1;P2;durP2;ratioP2
1885;SDS011;943;51.568;6.998;2023-05-15T00:00:47;32.00;;;24.43;;
1885;SDS011;943;51.568;6.998;2023-05-15T00:03:16;32.43;;;25.17;;
1885;SDS011;943;51.568;6.998;2023-05-15T00:05:44;29.93;;;24.33;;
1885;SDS011;943;51.568;6.998;2023-05-15T00:08:12;32.17;;;25.63;;
1885;SDS011;943;51.568;6.998;2023-05-15T00:10:40;37.20;;;26.00;;
1885;SDS011;943;51.568;6.998;2023-05-15T00:13:25;37.07;;;27.93;;
1885;SDS011;943;51.568;6.998;2023-05-15T00:15:53;38.00;;;28.20;;
1885;SDS011;943;51.568;6.998;2023-05-15T00:18:21;37.10;;;26.67;;
1885;SDS011;943;51.568;6.998;2023-05-15T00:20:48;41.17;;;26.03;;
1885;SDS011;943;51.568;6.998;2023-05-15T00:23:18;37.70;;;28.37;;
1885;SDS011;943;51.568;6.998;2023-05-15T00:25:46;44.53;;;27.30;;
1885;SDS011;943;51.568;6.998;2023-05-15T00:28:14;39.63;;;29.23;;
1885;SDS011;943;51.568;6.998;2023-05-15T00:30:42;41.40;;;28.40;;
1885;SDS011;943;51.568;6.998;2023-05-15T00:33:09;44.27;;;30.27;;
1885;SDS011;943;51.568;6.998;2023-05-15T00:35:37;43.33;;;28.03;;
1885;SDS011;943;51.568;6.998;2023-05-15T00:38:05;43.07;;;29.90;;
1885;SDS011;943;51.568;6.998;2023-05-15T00:40:35;44.30;;;32.27;;
1885;SDS011;943;51.568;6.998;2023-05-15T00:43:06;49.07;;;30.23;;
1885;SDS011;943;51.568;6.998;2023-05-15T00:45:37;49.13;;;28.50;;
1885;SDS011;943;51.568;6.998;2023-05-15T00:48:08;45.63;;;31.90;;
1885;SDS011;943;51.568;6.998;2023-05-15T00:50:38;51.73;;;31.80;;
1885;SDS011;943;51.568;6.998;2023-05-15T00:53:07;49.93;;;32.13;;
1885;SDS011;943;51.568;6.998;2023-05-15T00:55:36;47.17;;;31.17;;
1885;SDS011;943;51.568;6.998;2023-05-15T00:58:08;47.60;;;34.20;;
1885;SDS011;943;51.568;6.998;2023-05-15T01:00:37;43.90;;;31.40;;
1885;SDS011;943;51.568;6.998;2023-05-15T01:03:06;47.63;;;33.10;;
1885;SDS011;943;51.568;6.998;2023-05-15T01:05:34;48.23;;;33.20;;
1885;SDS011;943;51.568;6.998;2023-05-15T01:08:07;45.73;;;31.63;;
1885;SDS011;943;51.568;6.998;2023-05-15T01:10:55;52.80;;;32.43;;
1885;SDS011;943;51.568;6.998;2023-05-15T01:13:25;46.40;;;32.77;;
1885;SDS011;943;51.568;6.998;2023-05-15T01:15:54;51.63;;;32.23;;
1885;SDS011;943;51.568;6.998;2023-05-15T01:18:24;54.27;;;34.53;;
1885;SDS011;943;51.568;6.998;2023-05-15T01:27:55;53.00;;;34.10;;
1885;SDS011;943;51.568;6.998;2023-05-15T01:30:37;58.13;;;38.17;;
1885;SDS011;943;51.568;6.998;2023-05-15T01:33:21;61.33;;;35.07;;
1885;SDS011;943;51.568;6.998;2023-05-15T01:36:09;49.10;;;34.87;;
1885;SDS011;943;51.568;6.998;2023-05-15T01:38:56;54.37;;;34.57;;
1885;SDS011;943;51.568;6.998;2023-05-15T01:41:31;56.10;;;33.77;;
1885;SDS011;943;51.568;6.998;2023-05-15T01:44:52;64.10;;;36.70;;
1885;SDS011;943;51.568;6.998;2023-05-15T01:47:39;51.23;;;33.93;;
1885;SDS011;943;51.568;6.998;2023-05-15T01:50:14;55.90;;;35.40;;
1885;SDS011;943;51.568;6.998;2023-05-15T01:52:47;66.73;;;38.50;;
1885;SDS011;943;51.568;6.998;2023-05-15T01:55:24;70.60;;;39.53;;
1885;SDS011;943;51.568;6.998;2023-05-15T01:57:56;67.60;;;38.70;;
1885;SDS011;943;51.568;6.998;2023-05-15T02:00:28;65.07;;;39.10;;
1885;SDS011;943;51.568;6.998;2023-05-15T02:02:59;61.73;;;36.50;;
1885;SDS011;943;51.568;6.998;2023-05-15T02:05:30;64.50;;;35.80;;
1885;SDS011;943;51.568;6.998;2023-05-15T02:08:01;64.03;;;39.30;;
1885;SDS011;943;51.568;6.998;2023-05-15T02:10:31;67.07;;;39.60;;
1885;SDS011;943;51.568;6.998;2023-05-15T02:13:01;68.20;;;36.47;;
1885;SDS011;943;51.568;6.998;2023-05-15T02:15:31;74.10;;;42.77;;
1885;SDS011;943;51.568;6.998;2023-05-15T02:18:00;81.53;;;44.40;;
1885;SDS011;943;51.568;6.998;2023-05-15T02:20:31;69.10;;;40.30;;
1885;SDS011;943;51.568;6.998;2023-05-15T02:23:02;72.33;;;41.30;;
1885;SDS011;943;51.568;6.998;2023-05-15T02:25:37;65.00;;;42.23;;
1885;SDS011;943;51.568;6.998;2023-05-15T02:29:18;71.20;;;42.27;;
1885;SDS011;943;51.568;6.998;2023-05-15T02:33:01;63.30;;;42.60;;
1885;SDS011;943;51.568;6.998;2023-05-15T02:35:50;62.90;;;38.27;;
1885;SDS011;943;51.568;6.998;2023-05-15T02:38:50;56.00;;;38.70;;
1885;SDS011;943;51.568;6.998;2023-05-15T02:41:20;66.00;;;39.67;;
1885;SDS011;943;51.568;6.998;2023-05-15T02:43:50;62.30;;;40.20;;
1885;SDS011;943;51.568;6.998;2023-05-15T02:46:20;64.00;;;39.53;;
1885;SDS011;943;51.568;6.998;2023-05-15T02:48:51;60.60;;;39.33;;
1885;SDS011;943;51.568;6.998;2023-05-15T02:51:21;52.83;;;34.83;;
1885;SDS011;943;51.568;6.998;2023-05-15T02:53:49;60.13;;;37.80;;
1885;SDS011;943;51.568;6.998;2023-05-15T02:56:18;50.33;;;35.67;;
1885;SDS011;943;51.568;6.998;2023-05-15T02:58:46;59.10;;;36.63;;
1885;SDS011;943;51.568;6.998;2023-05-15T03:01:15;59.43;;;37.23;;
1885;SDS011;943;51.568;6.998;2023-05-15T03:03:43;53.67;;;36.90;;
1885;SDS011;943;51.568;6.998;2023-05-15T03:06:11;66.10;;;38.40;;
1885;SDS011;943;51.568;6.998;2023-05-15T03:08:38;70.70;;;37.57;;
1885;SDS011;943;51.568;6.998;2023-05-15T03:11:06;58.03;;;37.83;;
1885;SDS011;943;51.568;6.998;2023-05-15T03:13:34;63.67;;;43.70;;
1885;SDS011;943;51.568;6.998;2023-05-15T03:16:02;68.90;;;39.13;;
1885;SDS011;943;51.568;6.998;2023-05-15T03:18:30;68.53;;;38.67;;
1885;SDS011;943;51.568;6.998;2023-05-15T03:20:58;59.70;;;38.43;;
1885;SDS011;943;51.568;6.998;2023-05-15T03:23:26;61.40;;;40.77;;
1885;SDS011;943;51.568;6.998;2023-05-15T03:25:54;52.93;;;36.50;;
1885;SDS011;943;51.568;6.998;2023-05-15T03:28:21;57.40;;;38.53;;
1885;SDS011;943;51.568;6.998;2023-05-15T03:30:49;58.00;;;37.20;;
1885;SDS011;943;51.568;6.998;2023-05-15T03:33:17;52.30;;;34.83;;
1885;SDS011;943;51.568;6.998;2023-05-15T03:35:45;54.80;;;36.60;;
1885;SDS011;943;51.568;6.998;2023-05-15T03:38:13;47.97;;;35.77;;
1885;SDS011;943;51.568;6.998;2023-05-15T03:40:41;51.93;;;33.80;;
1885;SDS011;943;51.568;6.998;2023-05-15T03:43:08;51.60;;;33.73;;
1885;SDS011;943;51.568;6.998;2023-05-15T03:45:37;53.10;;;35.53;;
1885;SDS011;943;51.568;6.998;2023-05-15T03:48:18;49.57;;;35.47;;
1885;SDS011;943;51.568;6.998;2023-05-15T03:50:46;48.57;;;33.57;;
1885;SDS011;943;51.568;6.998;2023-05-15T03:53:14;57.57;;;36.10;;
1885;SDS011;943;51.568;6.998;2023-05-15T03:55:42;56.27;;;38.63;;
1885;SDS011;943;51.568;6.998;2023-05-15T03:58:10;57.57;;;37.77;;
1885;SDS011;943;51.568;6.998;2023-05-15T04:00:38;50.70;;;34.93;;
1885;SDS011;943;51.568;6.998;2023-05-15T04:03:05;52.13;;;35.07;;
1885;SDS011;943;51.568;6.998;2023-05-15T04:05:34;47.03;;;33.93;;
1885;SDS011;943;51.568;6.998;2023-05-15T04:08:02;59.10;;;36.90;;
1885;SDS011;943;51.568;6.998;2023-05-15T04:10:31;55.23;;;36.87;;
1885;SDS011;943;51.568;6.998;2023-05-15T04:12:59;57.90;;;37.40;;
1885;SDS011;943;51.568;6.998;2023-05-15T04:15:26;60.60;;;39.27;;
1885;SDS011;943;51.568;6.998;2023-05-15T04:17:55;59.77;;;37.77;;
1885;SDS011;943;51.568;6.998;2023-05-15T04:20:23;58.23;;;37.37;;
1885;SDS011;943;51.568;6.998;2023-05-15T04:22:51;61.00;;;39.30;;
1885;SDS011;943;51.568;6.998;2023-05-15T04:25:20;55.13;;;35.80;;
1885;SDS011;943;51.568;6.998;2023-05-15T04:27:48;55.90;;;37.60;;
1885;SDS011;943;51.568;6.998;2023-05-15T04:30:16;64.03;;;39.70;;
1885;SDS011;943;51.568;6.998;2023-05-15T04:32:44;63.70;;;37.83;;
1885;SDS011;943;51.568;6.998;2023-05-15T04:35:12;67.30;;;40.10;;
1885;SDS011;943;51.568;6.998;2023-05-15T04:37:41;61.13;;;38.23;;
1885;SDS011;943;51.568;6.998;2023-05-15T04:40:11;64.80;;;38.37;;
1885;SDS011;943;51.568;6.998;2023-05-15T04:42:42;59.67;;;38.17;;
1885;SDS011;943;51.568;6.998;2023-05-15T04:45:10;59.93;;;39.23;;
1885;SDS011;943;51.568;6.998;2023-05-15T04:47:38;62.57;;;37.47;;
1885;SDS011;943;51.568;6.998;2023-05-15T04:50:06;60.70;;;37.40;;
1885;SDS011;943;51.568;6.998;2023-05-15T04:52:34;56.80;;;39.70;;
1885;SDS011;943;51.568;6.998;2023-05-15T04:55:02;72.20;;;43.37;;
1885;SDS011;943;51.568;6.998;2023-05-15T04:57:32;64.30;;;40.10;;
1885;SDS011;943;51.568;6.998;2023-05-15T05:00:00;67.50;;;41.73;;
1885;SDS011;943;51.568;6.998;2023-05-15T05:02:31;65.60;;;39.30;;
1885;SDS011;943;51.568;6.998;2023-05-15T05:04:59;73.23;;;41.63;;
1885;SDS011;943;51.568;6.998;2023-05-15T05:07:27;77.50;;;45.07;;
1885;SDS011;943;51.568;6.998;2023-05-15T05:09:55;119.80;;;51.60;;
1885;SDS011;943;51.568;6.998;2023-05-15T05:12:23;130.63;;;57.63;;
1885;SDS011;943;51.568;6.998;2023-05-15T05:14:53;134.57;;;59.33;;
1885;SDS011;943;51.568;6.998;2023-05-15T05:17:22;135.33;;;57.10;;
1885;SDS011;943;51.568;6.998;2023-05-15T05:19:56;178.80;;;71.07;;
1885;SDS011;943;51.568;6.998;2023-05-15T05:22:24;188.80;;;73.83;;
1885;SDS011;943;51.568;6.998;2023-05-15T05:24:52;191.70;;;71.07;;
1885;SDS011;943;51.568;6.998;2023-05-15T05:27:20;180.03;;;67.83;;
1885;SDS011;943;51.568;6.998;2023-05-15T05:29:48;143.70;;;68.30;;
1885;SDS011;943;51.568;6.998;2023-05-15T05:32:24;130.10;;;58.77;;
1885;SDS011;943;51.568;6.998;2023-05-15T05:34:52;126.50;;;56.93;;
1885;SDS011;943;51.568;6.998;2023-05-15T05:37:20;109.60;;;53.47;;
1885;SDS011;943;51.568;6.998;2023-05-15T05:39:47;93.63;;;48.63;;
1885;SDS011;943;51.568;6.998;2023-05-15T05:42:15;86.30;;;48.03;;
1885;SDS011;943;51.568;6.998;2023-05-15T05:44:43;88.40;;;47.10;;
1885;SDS011;943;51.568;6.998;2023-05-15T05:47:10;99.87;;;51.23;;
1885;SDS011;943;51.568;6.998;2023-05-15T05:49:39;84.17;;;48.83;;
1885;SDS011;943;51.568;6.998;2023-05-15T05:52:07;85.93;;;44.20;;
1885;SDS011;943;51.568;6.998;2023-05-15T05:54:35;91.00;;;48.23;;
1885;SDS011;943;51.568;6.998;2023-05-15T05:57:02;91.23;;;51.97;;
1885;SDS011;943;51.568;6.998;2023-05-15T05:59:33;110.93;;;54.77;;
1885;SDS011;943;51.568;6.998;2023-05-15T06:02:01;93.93;;;48.77;;
1885;SDS011;943;51.568;6.998;2023-05-15T06:04:31;82.23;;;47.30;;
1885;SDS011;943;51.568;6.998;2023-05-15T06:07:02;94.60;;;49.10;;
1885;SDS011;943;51.568;6.998;2023-05-15T06:09:30;81.83;;;49.40;;
1885;SDS011;943;51.568;6.998;2023-05-15T06:11:58;88.20;;;46.07;;
1885;SDS011;943;51.568;6.998;2023-05-15T06:14:30;79.63;;;44.03;;
1885;SDS011;943;51.568;6.998;2023-05-15T06:16:58;72.70;;;44.10;;
1885;SDS011;943;51.568;6.998;2023-05-15T06:19:27;73.03;;;43.30;;
1885;SDS011;943;51.568;6.998;2023-05-15T06:21:56;81.30;;;46.97;;
1885;SDS011;943;51.568;6.998;2023-05-15T06:24:24;102.80;;;53.63;;
1885;SDS011;943;51.568;6.998;2023-05-15T06:26:52;82.67;;;48.70;;
1885;SDS011;943;51.568;6.998;2023-05-15T06:29:20;94.50;;;48.37;;
1885;SDS011;943;51.568;6.998;2023-05-15T06:31:48;88.70;;;49.03;;
1885;SDS011;943;51.568;6.998;2023-05-15T06:34:16;81.83;;;45.50;;
1885;SDS011;943;51.568;6.998;2023-05-15T06:36:44;79.50;;;46.07;;
1885;SDS011;943;51.568;6.998;2023-05-15T06:39:12;80.57;;;47.60;;
1885;SDS011;943;51.568;6.998;2023-05-15T06:41:39;76.43;;;48.30;;
1885;SDS011;943;51.568;6.998;2023-05-15T06:44:11;75.60;;;43.70;;
1885;SDS011;943;51.568;6.998;2023-05-15T06:46:38;57.60;;;40.50;;
1885;SDS011;943;51.568;6.998;2023-05-15T06:49:06;52.27;;;37.63;;
1885;SDS011;943;51.568;6.998;2023-05-15T06:51:34;49.40;;;34.37;;
1885;SDS011;943;51.568;6.998;2023-05-15T06:54:02;43.13;;;30.83;;
1885;SDS011;943;51.568;6.998;2023-05-15T06:56:31;39.60;;;29.47;;
1885;SDS011;943;51.568;6.998;2023-05-15T06:58:59;43.73;;;30.10;;
1885;SDS011;943;51.568;6.998;2023-05-15T07:01:27;41.40;;;27.90;;
1885;SDS011;943;51.568;6.998;2023-05-15T07:03:57;37.10;;;28.23;;
1885;SDS011;943;51.568;6.998;2023-05-15T07:06:27;40.30;;;27.73;;
1885;SDS011;943;51.568;6.998;2023-05-15T07:08:57;36.63;;;26.83;;
1885;SDS011;943;51.568;6.998;2023-05-15T07:11:26;32.17;;;26.67;;
1885;SDS011;943;51.568;6.998;2023-05-15T07:13:54;32.63;;;24.30;;
1885;SDS011;943;51.568;6.998;2023-05-15T07:16:23;27.63;;;21.93;;
1885;SDS011;943;51.568;6.998;2023-05-15T07:18:50;30.40;;;24.27;;
1885;SDS011;943;51.568;6.998;2023-05-15T07:21:18;29.13;;;22.43;;
1885;SDS011;943;51.568;6.998;2023-05-15T07:23:46;25.60;;;20.27;;
1885;SDS011;943;51.568;6.998;2023-05-15T07:26:14;27.57;;;20.93;;
1885;SDS011;943;51.568;6.998;2023-05-15T07:28:53;23.47;;;18.20;;
1885;SDS011;943;51.568;6.998;2023-05-15T07:31:21;27.07;;;17.40;;
1885;SDS011;943;51.568;6.998;2023-05-15T07:33:49;21.50;;;17.40;;
1885;SDS011;943;51.568;6.998;2023-05-15T07:36:17;18.77;;;15.53;;
1885;SDS011;943;51.568;6.998;2023-05-15T07:38:44;22.63;;;16.13;;
1885;SDS011;943;51.568;6.998;2023-05-15T07:41:12;19.67;;;16.03;;
1885;SDS011;943;51.568;6.998;2023-05-15T07:43:40;21.50;;;15.13;;
1885;SDS011;943;51.568;6.998;2023-05-15T07:46:08;19.77;;;15.03;;
1885;SDS011;943;51.568;6.998;2023-05-15T07:48:36;17.30;;;15.50;;
1885;SDS011;943;51.568;6.998;2023-05-15T07:51:05;20.70;;;15.67;;
1885;SDS011;943;51.568;6.998;2023-05-15T07:53:33;17.13;;;14.70;;
1885;SDS011;943;51.568;6.998;2023-05-15T07:56:01;17.40;;;15.57;;
1885;SDS011;943;51.568;6.998;2023-05-15T07:58:29;19.53;;;14.97;;
1885;SDS011;943;51.568;6.998;2023-05-15T08:00:59;17.73;;;14.40;;
1885;SDS011;943;51.568;6.998;2023-05-15T08:03:27;18.60;;;16.30;;
1885;SDS011;943;51.568;6.998;2023-05-15T08:05:55;19.67;;;14.97;;
1885;SDS011;943;51.568;6.998;2023-05-15T08:08:23;17.87;;;15.97;;
1885;SDS011;943;51.568;6.998;2023-05-15T08:10:51;18.60;;;16.10;;
1885;SDS011;943;51.568;6.998;2023-05-15T08:13:19;18.23;;;14.97;;
1885;SDS011;943;51.568;6.998;2023-05-15T08:15:47;20.00;;;14.57;;
1885;SDS011;943;51.568;6.998;2023-05-15T08:18:15;23.60;;;14.77;;
1885;SDS011;943;51.568;6.998;2023-05-15T08:20:43;18.20;;;16.13;;
1885;SDS011;943;51.568;6.998;2023-05-15T08:23:11;20.37;;;15.80;;
1885;SDS011;943;51.568;6.998;2023-05-15T08:25:39;20.40;;;15.80;;
1885;SDS011;943;51.568;6.998;2023-05-15T08:28:07;16.40;;;14.70;;
1885;SDS011;943;51.568;6.998;2023-05-15T08:30:36;17.13;;;15.30;;
1885;SDS011;943;51.568;6.998;2023-05-15T08:33:04;20.73;;;16.47;;
1885;SDS011;943;51.568;6.998;2023-05-15T08:35:32;18.87;;;15.80;;
1885;SDS011;943;51.568;6.998;2023-05-15T08:38:00;18.83;;;16.90;;
1885;SDS011;943;51.568;6.998;2023-05-15T08:40:29;19.20;;;15.70;;
1885;SDS011;943;51.568;6.998;2023-05-15T08:43:07;19.80;;;16.60;;
1885;SDS011;943;51.568;6.998;2023-05-15T08:45:43;19.90;;;15.60;;
1885;SDS011;943;51.568;6.998;2023-05-15T08:48:17;21.20;;;14.57;;
1885;SDS011;943;51.568;6.998;2023-05-15T08:50:46;17.30;;;14.47;;
1885;SDS011;943;51.568;6.998;2023-05-15T08:53:16;18.43;;;14.73;;
1885;SDS011;943;51.568;6.998;2023-05-15T08:55:44;21.83;;;14.60;;
1885;SDS011;943;51.568;6.998;2023-05-15T08:58:13;19.43;;;14.50;;
1885;SDS011;943;51.568;6.998;2023-05-15T09:00:47;16.03;;;14.20;;
1885;SDS011;943;51.568;6.998;2023-05-15T09:03:16;16.60;;;14.60;;
1885;SDS011;943;51.568;6.998;2023-05-15T09:05:45;16.27;;;13.80;;
1885;SDS011;943;51.568;6.998;2023-05-15T09:08:20;19.20;;;15.10;;
1885;SDS011;943;51.568;6.998;2023-05-15T09:10:51;17.97;;;15.10;;
1885;SDS011;943;51.568;6.998;2023-05-15T09:13:22;15.57;;;12.83;;
1885;SDS011;943;51.568;6.998;2023-05-15T09:15:51;18.07;;;14.00;;
1885;SDS011;943;51.568;6.998;2023-05-15T09:18:19;15.40;;;13.77;;
1885;SDS011;943;51.568;6.998;2023-05-15T09:20:48;17.43;;;14.17;;
1885;SDS011;943;51.568;6.998;2023-05-15T09:23:26;15.40;;;13.80;;
1885;SDS011;943;51.568;6.998;2023-05-15T09:25:54;21.20;;;13.97;;
1885;SDS011;943;51.568;6.998;2023-05-15T09:28:25;16.30;;;13.77;;
1885;SDS011;943;51.568;6.998;2023-05-15T09:31:03;18.07;;;15.37;;
1885;SDS011;943;51.568;6.998;2023-05-15T09:33:33;15.63;;;12.27;;
1885;SDS011;943;51.568;6.998;2023-05-15T09:36:08;17.00;;;13.17;;
1885;SDS011;943;51.568;6.998;2023-05-15T09:38:48;15.10;;;13.50;;
1885;SDS011;943;51.568;6.998;2023-05-15T09:41:26;18.83;;;13.47;;
1885;SDS011;943;51.568;6.998;2023-05-15T09:43:54;15.20;;;13.37;;
1885;SDS011;943;51.568;6.998;2023-05-15T09:46:22;13.50;;;12.10;;
1885;SDS011;943;51.568;6.998;2023-05-15T09:48:58;15.77;;;12.47;;
1885;SDS011;943;51.568;6.998;2023-05-15T09:51:26;15.53;;;12.27;;
1885;SDS011;943;51.568;6.998;2023-05-15T09:53:54;14.43;;;11.73;;
1885;SDS011;943;51.568;6.998;2023-05-15T09:56:23;14.60;;;11.00;;
1885;SDS011;943;51.568;6.998;2023-05-15T09:58:55;15.47;;;11.77;;
1885;SDS011;943;51.568;6.998;2023-05-15T10:01:25;15.90;;;12.60;;
1885;SDS011;943;51.568;6.998;2023-05-15T10:04:00;13.40;;;10.77;;
1885;SDS011;943;51.568;6.998;2023-05-15T10:06:35;12.10;;;10.83;;
1885;SDS011;943;51.568;6.998;2023-05-15T10:09:13;11.50;;;9.70;;
1885;SDS011;943;51.568;6.998;2023-05-15T10:11:43;12.03;;;10.60;;
1885;SDS011;943;51.568;6.998;2023-05-15T10:14:21;11.93;;;9.50;;
1885;SDS011;943;51.568;6.998;2023-05-15T10:16:52;11.00;;;9.57;;
1885;SDS011;943;51.568;6.998;2023-05-15T10:19:22;12.17;;;8.90;;
1885;SDS011;943;51.568;6.998;2023-05-15T10:21:55;14.00;;;11.10;;
1885;SDS011;943;51.568;6.998;2023-05-15T10:24:26;12.20;;;10.50;;
1885;SDS011;943;51.568;6.998;2023-05-15T10:26:58;14.20;;;11.30;;
1885;SDS011;943;51.568;6.998;2023-05-15T10:29:28;11.90;;;10.47;;
1885;SDS011;943;51.568;6.998;2023-05-15T10:31:59;14.80;;;10.03;;
1885;SDS011;943;51.568;6.998;2023-05-15T10:34:29;13.23;;;11.40;;
1885;SDS011;943;51.568;6.998;2023-05-15T10:36:59;13.60;;;10.90;;
1885;SDS011;943;51.568;6.998;2023-05-15T10:39:30;15.10;;;11.50;;
1885;SDS011;943;51.568;6.998;2023-05-15T10:42:03;13.23;;;11.03;;
1885;SDS011;943;51.568;6.998;2023-05-15T10:44:34;14.83;;;9.10;;
1885;SDS011;943;51.568;6.998;2023-05-15T10:47:02;13.93;;;10.63;;
1885;SDS011;943;51.568;6.998;2023-05-15T10:49:33;15.60;;;10.37;;
1885;SDS011;943;51.568;6.998;2023-05-15T10:52:01;10.67;;;9.30;;
1885;SDS011;943;51.568;6.998;2023-05-15T10:54:30;15.67;;;10.80;;
1885;SDS011;943;51.568;6.998;2023-05-15T10:56:58;13.07;;;10.33;;
1885;SDS011;943;51.568;6.998;2023-05-15T10:59:30;10.97;;;9.87;;
1885;SDS011;943;51.568;6.998;2023-05-15T11:04:59;14.33;;;10.40;;
1885;SDS011;943;51.568;6.998;2023-05-15T11:07:29;13.03;;;11.13;;
1885;SDS011;943;51.568;6.998;2023-05-15T11:09:58;14.17;;;10.83;;
1885;SDS011;943;51.568;6.998;2023-05-15T11:12:58;12.13;;;9.80;;
1885;SDS011;943;51.568;6.998;2023-05-15T11:15:39;11.33;;;9.60;;
1885;SDS011;943;51.568;6.998;2023-05-15T11:18:12;16.63;;;11.67;;
1885;SDS011;943;51.568;6.998;2023-05-15T11:20:42;13.23;;;11.80;;
1885;SDS011;943;51.568;6.998;2023-05-15T11:23:36;18.40;;;11.40;;
1885;SDS011;943;51.568;6.998;2023-05-15T11:26:07;14.30;;;11.03;;
1885;SDS011;943;51.568;6.998;2023-05-15T11:28:41;12.43;;;10.27;;
1885;SDS011;943;51.568;6.998;2023-05-15T11:31:10;14.03;;;10.23;;
1885;SDS011;943;51.568;6.998;2023-05-15T11:33:39;11.83;;;10.17;;
1885;SDS011;943;51.568;6.998;2023-05-15T11:36:09;11.70;;;10.03;;
1885;SDS011;943;51.568;6.998;2023-05-15T11:38:41;10.80;;;9.40;;
1885;SDS011;943;51.568;6.998;2023-05-15T11:41:17;14.47;;;9.37;;
1885;SDS011;943;51.568;6.998;2023-05-15T11:43:49;8.03;;;6.93;;
1885;SDS011;943;51.568;6.998;2023-05-15T11:46:18;9.13;;;8.20;;
1885;SDS011;943;51.568;6.998;2023-05-15T11:48:49;9.33;;;7.57;;
1885;SDS011;943;51.568;6.998;2023-05-15T11:51:24;11.63;;;8.10;;
1885;SDS011;943;51.568;6.998;2023-05-15T11:53:55;11.60;;;8.80;;
1885;SDS011;943;51.568;6.998;2023-05-15T11:56:25;10.23;;;8.60;;
1885;SDS011;943;51.568;6.998;2023-05-15T11:58:55;10.10;;;7.87;;
1885;SDS011;943;51.568;6.998;2023-05-15T12:01:26;13.00;;;8.20;;
1885;SDS011;943;51.568;6.998;2023-05-15T12:04:13;9.43;;;8.10;;
1885;SDS011;943;51.568;6.998;2023-05-15T12:06:44;10.17;;;8.50;;
1885;SDS011;943;51.568;6.998;2023-05-15T12:09:16;11.83;;;8.93;;
1885;SDS011;943;51.568;6.998;2023-05-15T12:11:50;10.77;;;9.10;;
1885;SDS011;943;51.568;6.998;2023-05-15T12:14:27;8.90;;;8.00;;
1885;SDS011;943;51.568;6.998;2023-05-15T12:17:00;9.93;;;7.90;;
1885;SDS011;943;51.568;6.998;2023-05-15T12:19:30;8.60;;;7.30;;
1885;SDS011;943;51.568;6.998;2023-05-15T12:22:05;8.40;;;7.13;;
1885;SDS011;943;51.568;6.998;2023-05-15T12:24:36;9.10;;;8.13;;
1885;SDS011;943;51.568;6.998;2023-05-15T12:27:05;9.97;;;7.63;;
1885;SDS011;943;51.568;6.998;2023-05-15T12:29:35;10.60;;;7.10;;
1885;SDS011;943;51.568;6.998;2023-05-15T12:32:06;8.90;;;6.23;;
1885;SDS011;943;51.568;6.998;2023-05-15T12:34:36;8.23;;;7.37;;
1885;SDS011;943;51.568;6.998;2023-05-15T12:37:04;8.83;;;7.90;;
1885;SDS011;943;51.568;6.998;2023-05-15T12:39:52;7.70;;;6.90;;
1885;SDS011;943;51.568;6.998;2023-05-15T12:42:41;9.87;;;7.13;;
1885;SDS011;943;51.568;6.998;2023-05-15T12:45:12;7.33;;;6.60;;
1885;SDS011;943;51.568;6.998;2023-05-15T12:47:47;8.07;;;7.20;;
1885;SDS011;943;51.568;6.998;2023-05-15T12:50:18;8.50;;;7.07;;
1885;SDS011;943;51.568;6.998;2023-05-15T12:52:49;7.70;;;6.30;;
1885;SDS011;943;51.568;6.998;2023-05-15T12:55:34;9.97;;;5.60;;
1885;SDS011;943;51.568;6.998;2023-05-15T12:58:06;7.17;;;5.60;;
1885;SDS011;943;51.568;6.998;2023-05-15T13:00:41;8.77;;;6.50;;
1885;SDS011;943;51.568;6.998;2023-05-15T13:03:18;9.90;;;7.93;;
1885;SDS011;943;51.568;6.998;2023-05-15T13:05:47;11.10;;;8.03;;
1885;SDS011;943;51.568;6.998;2023-05-15T13:08:17;10.20;;;8.50;;
1885;SDS011;943;51.568;6.998;2023-05-15T13:10:52;13.03;;;9.87;;
1885;SDS011;943;51.568;6.998;2023-05-15T13:13:42;11.43;;;9.43;;
1885;SDS011;943;51.568;6.998;2023-05-15T13:16:25;9.60;;;8.33;;
1885;SDS011;943;51.568;6.998;2023-05-15T13:18:59;11.57;;;9.53;;
1885;SDS011;943;51.568;6.998;2023-05-15T13:21:29;10.77;;;8.00;;
1885;SDS011;943;51.568;6.998;2023-05-15T13:23:57;8.27;;;6.17;;
1885;SDS011;943;51.568;6.998;2023-05-15T13:26:25;10.93;;;9.07;;
1885;SDS011;943;51.568;6.998;2023-05-15T13:28:53;10.90;;;9.80;;
1885;SDS011;943;51.568;6.998;2023-05-15T13:31:24;19.43;;;10.47;;
1885;SDS011;943;51.568;6.998;2023-05-15T13:33:52;14.40;;;11.23;;
1885;SDS011;943;51.568;6.998;2023-05-15T13:36:20;13.17;;;9.97;;
1885;SDS011;943;51.568;6.998;2023-05-15T13:38:48;12.83;;;9.53;;
1885;SDS011;943;51.568;6.998;2023-05-15T13:41:16;11.97;;;8.73;;
1885;SDS011;943;51.568;6.998;2023-05-15T13:43:49;12.97;;;9.80;;
1885;SDS011;943;51.568;6.998;2023-05-15T13:46:22;9.73;;;8.73;;
1885;SDS011;943;51.568;6.998;2023-05-15T13:49:08;11.40;;;10.20;;
1885;SDS011;943;51.568;6.998;2023-05-15T13:52:07;12.33;;;9.60;;
1885;SDS011;943;51.568;6.998;2023-05-15T13:54:44;12.47;;;8.90;;
1885;SDS011;943;51.568;6.998;2023-05-15T13:57:18;10.80;;;7.97;;
1885;SDS011;943;51.568;6.998;2023-05-15T13:59:56;9.80;;;7.67;;
1885;SDS011;943;51.568;6.998;2023-05-15T14:02:40;7.77;;;6.30;;
1885;SDS011;943;51.568;6.998;2023-05-15T14:05:14;8.07;;;7.23;;
1885;SDS011;943;51.568;6.998;2023-05-15T14:08:09;14.03;;;11.97;;
1885;SDS011;943;51.568;6.998;2023-05-15T14:10:45;16.60;;;14.63;;
1885;SDS011;943;51.568;6.998;2023-05-15T14:13:26;23.07;;;16.67;;
1885;SDS011;943;51.568;6.998;2023-05-15T14:15:59;24.27;;;18.47;;
1885;SDS011;943;51.568;6.998;2023-05-15T14:18:33;20.80;;;17.00;;
1885;SDS011;943;51.568;6.998;2023-05-15T14:21:05;25.13;;;16.70;;
1885;SDS011;943;51.568;6.998;2023-05-15T14:23:51;16.37;;;14.20;;
1885;SDS011;943;51.568;6.998;2023-05-15T14:26:23;20.33;;;16.47;;
1885;SDS011;943;51.568;6.998;2023-05-15T14:28:51;18.50;;;15.43;;
1885;SDS011;943;51.568;6.998;2023-05-15T14:31:19;18.80;;;15.67;;
1885;SDS011;943;51.568;6.998;2023-05-15T14:33:47;18.73;;;15.53;;
1885;SDS011;943;51.568;6.998;2023-05-15T14:36:18;18.60;;;13.87;;
1885;SDS011;943;51.568;6.998;2023-05-15T14:38:53;16.83;;;13.13;;
1885;SDS011;943;51.568;6.998;2023-05-15T14:41:27;15.17;;;12.07;;
1885;SDS011;943;51.568;6.998;2023-05-15T14:43:57;15.77;;;11.70;;
1885;SDS011;943;51.568;6.998;2023-05-15T14:46:27;11.80;;;10.37;;
1885;SDS011;943;51.568;6.998;2023-05-15T14:49:14;13.90;;;11.07;;
1885;SDS011;943;51.568;6.998;2023-05-15T14:51:44;14.20;;;11.20;;
1885;SDS011;943;51.568;6.998;2023-05-15T14:54:15;13.80;;;10.67;;
1885;SDS011;943;51.568;6.998;2023-05-15T14:56:46;12.43;;;10.47;;
1885;SDS011;943;51.568;6.998;2023-05-15T14:59:15;13.03;;;10.63;;
1885;SDS011;943;51.568;6.998;2023-05-15T15:01:44;11.70;;;10.53;;
1885;SDS011;943;51.568;6.998;2023-05-15T15:04:13;13.07;;;10.47;;
1885;SDS011;943;51.568;6.998;2023-05-15T15:06:41;10.77;;;9.67;;
1885;SDS011;943;51.568;6.998;2023-05-15T15:09:11;15.47;;;10.00;;
1885;SDS011;943;51.568;6.998;2023-05-15T15:11:40;16.73;;;9.87;;
1885;SDS011;943;51.568;6.998;2023-05-15T15:14:10;12.10;;;9.80;;
1885;SDS011;943;51.568;6.998;2023-05-15T15:16:37;12.43;;;10.33;;
1885;SDS011;943;51.568;6.998;2023-05-15T15:19:06;10.27;;;8.47;;
1885;SDS011;943;51.568;6.998;2023-05-15T15:21:34;14.10;;;8.93;;
1885;SDS011;943;51.568;6.998;2023-05-15T15:24:02;10.63;;;8.87;;
1885;SDS011;943;51.568;6.998;2023-05-15T15:26:31;11.30;;;9.40;;
1885;SDS011;943;51.568;6.998;2023-05-15T15:28:59;15.90;;;11.10;;
1885;SDS011;943;51.568;6.998;2023-05-15T15:31:28;16.50;;;11.70;;
1885;SDS011;943;51.568;6.998;2023-05-15T15:33:57;12.77;;;11.17;;
1885;SDS011;943;51.568;6.998;2023-05-15T15:36:26;11.50;;;10.23;;
1885;SDS011;943;51.568;6.998;2023-05-15T15:38:54;16.30;;;11.33;;
1885;SDS011;943;51.568;6.998;2023-05-15T15:41:22;13.83;;;10.33;;